Time;durP1;ratioP1;P1;durP2;ratioP2;P2;SDS_P1;SDS_P2;PMS_P1;PMS_P2;Temp;Humidity;BMP_temperature;BMP_pressure;BME280_temperature;BME280_humidity;BME280_pressure;Samples;Min_cycle;Max_cycle;Signal;HPM_P1;HPM_P2
2021/05/20 00:01:33;;;;;;;7.57;6.88;;;307.80;2304.00;;;;;;5091570;28;20474;-66
2021/05/20 00:03:59;;;;;;;5.53;3.38;;;307.80;2304.00;;;;;;5091671;28;20024;-60
2021/05/20 00:06:27;;;;;;;4.57;3.05;;;307.80;2304.00;;;;;;5091495;28;20077;-61
2021/05/20 00:08:52;;;;;;;4.85;2.40;;;307.80;2304.00;;;;;;5091422;28;20036;-60
2021/05/20 00:11:18;;;;;;;3.95;2.60;;;307.80;2304.00;;;;;;5091503;28;20113;-60
2021/05/20 00:13:44;;;;;;;5.65;3.20;;;307.80;2304.00;;;;;;5091350;28;20111;-65
2021/05/20 00:16:09;;;;;;;4.93;2.78;;;307.80;2304.00;;;;;;5091462;28;20020;-60
2021/05/20 00:18:35;;;;;;;3.85;2.63;;;307.80;2304.00;;;;;;5091184;28;20032;-62
2021/05/20 00:21:01;;;;;;;4.32;3.00;;;307.70;2304.00;;;;;;5091078;28;20085;-61
2021/05/20 00:23:27;;;;;;;6.18;2.72;;;307.70;2304.00;;;;;;5091570;28;20020;-60
2021/05/20 00:25:52;;;;;;;5.57;2.88;;;307.60;2304.00;;;;;;5091459;28;20031;-60
2021/05/20 00:28:18;;;;;;;6.45;3.33;;;307.60;2304.00;;;;;;5091326;28;20020;-61
2021/05/20 00:30:44;;;;;;;4.85;2.55;;;307.50;2304.00;;;;;;5091043;28;20060;-61
2021/05/20 00:33:09;;;;;;;6.95;4.40;;;307.60;2304.00;;;;;;5091184;28;20048;-59
2021/05/20 00:35:35;;;;;;;6.75;4.57;;;307.60;2304.00;;;;;;5091079;28;20032;-61
2021/05/20 00:38:01;;;;;;;13.02;12.02;;;307.60;2304.00;;;;;;5091025;28;20071;-61
2021/05/20 00:40:27;;;;;;;7.47;6.00;;;307.70;2304.00;;;;;;5091030;28;20551;-61
2021/05/20 00:42:52;;;;;;;6.50;4.65;;;307.70;2304.00;;;;;;5091002;28;20099;-61
2021/05/20 00:45:18;;;;;;;6.05;3.28;;;307.80;2304.00;;;;;;5090832;28;20526;-61
2021/05/20 00:47:44;;;;;;;8.10;3.45;;;307.80;2304.00;;;;;;5090361;28;20048;-61
2021/05/20 00:50:11;;;;;;;6.30;3.03;;;307.80;2304.00;;;;;;5091029;28;20028;-61
2021/05/20 00:52:38;;;;;;;3.90;2.65;;;307.80;2304.00;;;;;;5091172;28;20365;-61
2021/05/20 00:55:06;;;;;;;4.78;2.38;;;307.70;2304.00;;;;;;5090927;28;20024;-60
2021/05/20 00:57:33;;;;;;;3.63;2.40;;;307.60;2304.00;;;;;;5090770;28;20171;-61
2021/05/20 01:00:13;;;;;;;4.03;2.40;;;307.50;2304.00;;;;;;5090821;28;20028;-63
2021/05/20 01:02:41;;;;;;;11.77;3.05;;;307.50;2304.00;;;;;;5090461;28;20541;-61
2021/05/20 01:05:10;;;;;;;5.20;2.78;;;307.30;2304.00;;;;;;5090721;28;20097;-61
2021/05/20 01:07:35;;;;;;;11.20;9.95;;;307.30;2304.00;;;;;;5090480;28;20020;-61
2021/05/20 01:10:03;;;;;;;4.15;2.83;;;307.40;2304.00;;;;;;5090361;28;20141;-61
2021/05/20 01:12:29;;;;;;;4.57;3.10;;;307.40;2304.00;;;;;;5090899;28;20157;-61
2021/05/20 01:14:55;;;;;;;9.02;8.25;;;307.60;2304.00;;;;;;5090397;28;20052;-60
2021/05/20 01:17:21;;;;;;;6.80;4.32;;;307.60;2304.00;;;;;;5090140;28;20032;-61
2021/05/20 01:19:47;;;;;;;4.28;3.22;;;307.60;2304.00;;;;;;5090408;28;20111;-60
2021/05/20 01:22:16;;;;;;;4.40;3.20;;;307.60;2304.00;;;;;;5090140;28;20059;-60
2021/05/20 01:24:42;;;;;;;4.72;2.80;;;307.80;2304.00;;;;;;5090295;28;20024;-61
2021/05/20 01:27:09;;;;;;;3.67;2.15;;;307.70;2304.00;;;;;;5090356;28;20408;-61
2021/05/20 01:29:36;;;;;;;5.93;2.70;;;307.80;2304.00;;;;;;5090216;28;20027;-64
2021/05/20 01:32:03;;;;;;;3.92;2.50;;;307.70;2304.00;;;;;;5090004;28;20031;-61
2021/05/20 01:34:32;;;;;;;3.83;2.58;;;307.70;2304.00;;;;;;5090075;28;20028;-60
2021/05/20 01:36:59;;;;;;;7.40;3.65;;;307.70;2304.00;;;;;;5090466;28;20407;-60
2021/05/20 01:39:25;;;;;;;4.18;2.38;;;307.80;2304.00;;;;;;5089986;28;20362;-62
2021/05/20 01:41:51;;;;;;;3.88;2.38;;;307.80;2304.00;;;;;;5089961;28;20036;-61
2021/05/20 01:44:19;;;;;;;3.20;2.28;;;307.80;2304.00;;;;;;5090340;28;20020;-62
2021/05/20 01:46:45;;;;;;;5.75;3.70;;;307.70;2304.00;;;;;;5089567;28;20478;-60
2021/05/20 01:49:11;;;;;;;6.55;5.93;;;307.60;2304.00;;;;;;5090110;28;20038;-61
2021/05/20 01:51:38;;;;;;;7.43;5.63;;;307.60;2304.00;;;;;;5090141;28;20076;-61
2021/05/20 01:54:04;;;;;;;3.97;3.08;;;307.60;2304.00;;;;;;5089955;28;20031;-60
2021/05/20 01:56:36;;;;;;;4.15;2.92;;;307.60;2304.00;;;;;;5090019;28;20077;-60
2021/05/20 01:59:03;;;;;;;4.95;2.10;;;282.30;2278.40;;;;;;5089868;28;20016;-61
2021/05/20 02:01:28;;;;;;;3.55;2.55;;;307.60;2304.00;;;;;;5090000;28;20028;-59
2021/05/20 02:03:54;;;;;;;9.82;3.47;;;307.60;2304.00;;;;;;5089750;28;20020;-61
2021/05/20 02:06:20;;;;;;;6.70;3.40;;;307.60;2304.00;;;;;;5090014;28;20093;-65
2021/05/20 02:08:46;;;;;;;7.65;3.90;;;307.50;2304.00;;;;;;5090118;28;20031;-61
2021/05/20 02:11:11;;;;;;;5.72;3.35;;;307.50;2304.00;;;;;;5089687;28;20480;-61
2021/05/20 02:13:37;;;;;;;8.93;4.05;;;307.40;2304.00;;;;;;5090110;28;20393;-60
2021/05/20 02:16:05;;;;;;;11.20;8.15;;;307.40;2304.00;;;;;;5093617;28;20043;-59
2021/05/20 02:18:30;;;;;;;8.13;4.55;;;307.50;2304.00;;;;;;5093678;28;20545;-60
2021/05/20 02:20:56;;;;;;;6.72;4.68;;;307.50;2304.00;;;;;;5093978;28;20122;-60
2021/05/20 02:23:22;;;;;;;6.15;3.75;;;307.50;2304.00;;;;;;5093492;28;20465;-60
2021/05/20 02:25:48;;;;;;;7.55;5.28;;;307.50;2304.00;;;;;;5093585;28;20065;-60
2021/05/20 02:28:14;;;;;;;6.63;4.93;;;307.40;2304.00;;;;;;5093385;28;20082;-60
2021/05/20 02:30:40;;;;;;;7.05;4.75;;;307.50;2304.00;;;;;;5093548;28;20389;-60
2021/05/20 02:33:06;;;;;;;7.13;4.43;;;307.50;2304.00;;;;;;5093652;28;20103;-60
2021/05/20 02:35:32;;;;;;;6.05;4.18;;;307.50;2304.00;;;;;;5093430;28;20469;-60
2021/05/20 02:37:58;;;;;;;9.00;4.43;;;307.50;2304.00;;;;;;5093592;28;20035;-60
2021/05/20 02:40:24;;;;;;;10.30;4.45;;;307.50;2304.00;;;;;;5093183;28;20386;-60
2021/05/20 02:42:50;;;;;;;7.38;4.25;;;307.50;2304.00;;;;;;5093350;28;20013;-59
2021/05/20 02:45:21;;;;;;;4.88;3.35;;;307.50;2304.00;;;;;;5092977;28;20435;-61
2021/05/20 02:47:48;;;;;;;6.38;3.80;;;307.60;2304.00;;;;;;5092962;28;20409;-65
2021/05/20 02:50:16;;;;;;;7.35;3.42;;;307.60;2304.00;;;;;;5092873;28;20036;-60
2021/05/20 02:52:45;;;;;;;6.45;3.70;;;307.60;2304.00;;;;;;5092821;28;20382;-60
2021/05/20 02:55:13;;;;;;;5.47;3.40;;;307.60;2304.00;;;;;;5092851;28;20059;-61
2021/05/20 02:57:42;;;;;;;6.50;5.43;;;307.60;2304.00;;;;;;5093030;28;20028;-62
2021/05/20 03:00:09;;;;;;;5.35;4.05;;;307.60;2304.00;;;;;;5092873;28;20028;-60
2021/05/20 03:02:35;;;;;;;11.65;10.70;;;307.50;2304.00;;;;;;5092758;28;20059;-64
2021/05/20 03:05:01;;;;;;;5.20;3.40;;;307.50;2304.00;;;;;;5092787;28;20117;-62
2021/05/20 03:07:27;;;;;;;3.67;2.50;;;307.50;2304.00;;;;;;5092824;28;20504;-61
2021/05/20 03:09:52;;;;;;;3.63;2.25;;;307.30;2304.00;;;;;;5092555;28;20059;-61
2021/05/20 03:12:18;;;;;;;3.97;2.28;;;307.20;2304.00;;;;;;5092647;28;20020;-65
2021/05/20 03:14:44;;;;;;;3.47;2.40;;;307.20;2304.00;;;;;;5092550;28;20054;-61
2021/05/20 03:17:11;;;;;;;6.00;2.90;;;282.50;2278.40;;;;;;5092506;28;20456;-61
2021/05/20 03:19:39;;;;;;;5.85;3.63;;;282.40;2278.40;;;;;;5092799;28;20063;-62
2021/05/20 03:22:07;;;;;;;5.20;3.33;;;282.40;2278.40;;;;;;5092466;28;20035;-62
2021/05/20 03:24:32;;;;;;;4.88;3.40;;;282.40;2278.40;;;;;;5091858;28;20024;-60
2021/05/20 03:26:58;;;;;;;6.60;3.42;;;282.40;2278.40;;;;;;5091867;28;20036;-60
2021/05/20 03:29:24;;;;;;;6.03;3.22;;;282.50;2278.40;;;;;;5091929;28;20118;-62
2021/05/20 03:31:49;;;;;;;9.52;5.45;;;282.50;2278.40;;;;;;5092333;28;20020;-64
2021/05/20 03:34:15;;;;;;;6.40;5.60;;;282.50;2278.40;;;;;;5091965;28;20111;-60
2021/05/20 03:36:41;;;;;;;6.35;4.78;;;307.20;2304.00;;;;;;5092133;28;20027;-62
2021/05/20 03:39:07;;;;;;;5.47;3.30;;;307.20;2304.00;;;;;;5092307;28;20028;-66
2021/05/20 03:41:33;;;;;;;4.85;3.28;;;282.50;2278.40;;;;;;5091986;28;20040;-68
2021/05/20 03:43:58;;;;;;;5.03;3.28;;;307.20;2304.00;;;;;;5092142;28;20031;-62
2021/05/20 03:46:24;;;;;;;3.53;2.90;;;307.20;2304.00;;;;;;5091313;28;20048;-62
2021/05/20 03:48:50;;;;;;;6.85;3.40;;;307.30;2304.00;;;;;;5091859;28;20049;-60
2021/05/20 03:51:15;;;;;;;4.45;3.22;;;307.30;2304.00;;;;;;5091823;28;20103;-62
2021/05/20 03:53:41;;;;;;;4.28;2.90;;;307.30;2304.00;;;;;;5091782;28;20051;-64
2021/05/20 03:56:07;;;;;;;15.43;3.35;;;307.20;2304.00;;;;;;5091587;28;20157;-61
2021/05/20 03:58:33;;;;;;;5.75;3.50;;;307.30;2304.00;;;;;;5091240;28;20042;-63
2021/05/20 04:00:58;;;;;;;5.78;3.00;;;307.30;2304.00;;;;;;5091259;28;20028;-60
2021/05/20 04:03:25;;;;;;;3.60;2.38;;;307.30;2304.00;;;;;;5091080;28;20480;-61
2021/05/20 04:05:52;;;;;;;4.32;2.67;;;307.50;2304.00;;;;;;5091657;28;20062;-66
2021/05/20 04:08:18;;;;;;;5.07;2.70;;;307.40;2304.00;;;;;;5091735;28;20028;-67
2021/05/20 04:10:44;;;;;;;5.68;2.40;;;307.50;2304.00;;;;;;5091037;28;20377;-60
2021/05/20 04:13:09;;;;;;;3.67;2.45;;;307.50;2304.00;;;;;;5091456;28;20111;-61
2021/05/20 04:15:35;;;;;;;3.88;2.45;;;307.60;2304.00;;;;;;5091377;28;20036;-62
2021/05/20 04:18:01;;;;;;;4.50;2.47;;;307.70;2304.00;;;;;;5091403;28;20046;-61
2021/05/20 04:20:27;;;;;;;5.05;2.85;;;307.60;2304.00;;;;;;5091545;28;20024;-62
2021/05/20 04:22:52;;;;;;;7.10;2.70;;;307.60;2304.00;;;;;;5091118;28;20024;-60
2021/05/20 04:25:18;;;;;;;3.60;2.60;;;307.70;2304.00;;;;;;5091373;28;20031;-61
2021/05/20 04:27:44;;;;;;;3.60;2.35;;;307.80;2304.00;;;;;;5091238;28;20035;-62
2021/05/20 04:30:11;;;;;;;4.35;2.22;;;307.60;2304.00;;;;;;5091308;28;20024;-61
2021/05/20 04:32:36;;;;;;;4.43;2.13;;;307.60;2304.00;;;;;;5091219;28;20481;-62
2021/05/20 04:35:02;;;;;;;3.65;2.33;;;307.60;2304.00;;;;;;5091841;28;20034;-64
2021/05/20 04:37:28;;;;;;;4.13;2.60;;;307.60;2304.00;;;;;;5091319;28;20024;-67
2021/05/20 04:42:52;;;;;;;3.95;2.45;;;307.60;2304.00;;;;;;5068968;28;20055;-61
2021/05/20 04:45:19;;;;;;;5.85;3.75;;;307.70;2304.00;;;;;;5070684;28;20477;-61
2021/05/20 04:47:45;;;;;;;7.07;3.70;;;307.80;2304.00;;;;;;5070661;28;20432;-63
2021/05/20 04:50:14;;;;;;;5.07;3.50;;;308.00;2304.00;;;;;;5070845;28;20601;-64
2021/05/20 04:52:41;;;;;;;4.05;3.05;;;308.10;2304.00;;;;;;5070731;28;20048;-63
2021/05/20 04:55:08;;;;;;;4.07;2.85;;;332.80;2329.60;;;;;;5070709;28;20359;-63
2021/05/20 04:57:34;;;;;;;6.25;3.33;;;332.80;2329.60;;;;;;5070402;28;20415;-63
2021/05/20 05:00:00;;;;;;;4.47;2.90;;;332.90;2329.60;;;;;;5070427;28;20020;-63
2021/05/20 05:02:26;;;;;;;4.25;2.90;;;332.80;2329.60;;;;;;5070457;28;20126;-64
2021/05/20 05:04:52;;;;;;;4.43;2.75;;;332.90;2329.60;;;;;;5070229;28;20128;-61
2021/05/20 05:07:18;;;;;;;5.55;3.67;;;308.10;2304.00;;;;;;5070191;28;20029;-63
2021/05/20 05:09:44;;;;;;;5.57;3.92;;;308.10;2304.00;;;;;;5070281;28;20019;-59
2021/05/20 05:12:09;;;;;;;7.00;5.43;;;308.10;2304.00;;;;;;5051933;28;20508;-65
2021/05/20 05:14:35;;;;;;;8.52;6.07;;;308.10;2304.00;;;;;;5070301;28;20378;-61
2021/05/20 05:17:01;;;;;;;7.00;5.65;;;308.10;2304.00;;;;;;5083739;28;20027;-60
2021/05/20 05:19:26;;;;;;;9.43;6.80;;;332.80;2329.60;;;;;;5095994;28;20044;-60
2021/05/20 05:21:52;;;;;;;11.93;7.95;;;332.80;2329.60;;;;;;5095865;28;20021;-61
2021/05/20 05:24:18;;;;;;;11.45;8.40;;;332.90;2329.60;;;;;;5095597;28;20060;-61
2021/05/20 05:26:44;;;;;;;12.00;9.18;;;332.90;2329.60;;;;;;5095687;28;20031;-61
2021/05/20 05:29:09;;;;;;;11.50;8.98;;;332.90;2329.60;;;;;;5095723;28;20016;-61
2021/05/20 05:31:36;;;;;;;22.13;13.07;;;333.00;2329.60;;;;;;5095756;28;20059;-59
2021/05/20 05:34:03;;;;;;;19.65;11.93;;;333.20;2329.60;;;;;;5095468;28;20009;-60
2021/05/20 05:36:29;;;;;;;27.23;15.05;;;333.10;2329.60;;;;;;5095610;28;20076;-62
2021/05/20 05:38:55;;;;;;;25.10;14.55;;;333.20;2329.60;;;;;;5095725;28;20016;-61
2021/05/20 05:41:20;;;;;;;17.90;12.15;;;333.30;2329.60;;;;;;5095476;28;20039;-62
2021/05/20 05:43:46;;;;;;;27.23;15.63;;;333.40;2329.60;;;;;;5078255;28;20016;-62
2021/05/20 05:46:12;;;;;;;18.45;12.15;;;333.40;2329.60;;;;;;5095583;28;20044;-60
2021/05/20 05:48:38;;;;;;;12.82;9.20;;;333.50;2329.60;;;;;;5079488;28;20035;-61
2021/05/20 05:51:07;;;;;;;10.35;7.97;;;333.60;2329.60;;;;;;5099805;28;20012;-61
2021/05/20 05:53:33;;;;;;;10.23;8.55;;;333.60;2329.60;;;;;;5099718;28;20031;-62
2021/05/20 05:55:59;;;;;;;12.40;10.30;;;333.70;2329.60;;;;;;5099804;28;20017;-64
2021/05/20 05:58:25;;;;;;;13.40;9.00;;;358.40;2329.60;;;;;;5099522;28;20008;-62
2021/05/20 06:00:51;;;;;;;10.93;9.00;;;358.50;2329.60;;;;;;5099306;28;20046;-61
2021/05/20 06:03:17;;;;;;;13.02;10.27;;;358.60;2329.60;;;;;;5099534;28;20033;-62
2021/05/20 06:05:47;;;;;;;11.88;9.32;;;358.60;2329.60;;;;;;5099348;28;20036;-61
2021/05/20 06:08:12;;;;;;;11.00;8.23;;;358.60;2329.60;;;;;;5081881;28;20009;-61
2021/05/20 06:10:38;;;;;;;10.50;7.13;;;358.70;2329.60;;;;;;5099460;28;20023;-60
2021/05/20 06:13:04;;;;;;;10.77;7.43;;;358.90;2329.60;;;;;;5099073;28;20047;-62
2021/05/20 06:15:30;;;;;;;9.73;6.85;;;359.10;2329.60;;;;;;5082005;28;20083;-62
2021/05/20 06:17:55;;;;;;;8.13;6.50;;;358.90;2329.60;;;;;;5099029;28;20016;-61
2021/05/20 06:20:21;;;;;;;11.23;6.38;;;359.00;2329.60;;;;;;5098736;28;20080;-61
2021/05/20 06:22:47;;;;;;;6.45;5.30;;;359.10;2329.60;;;;;;5099109;28;20016;-61
2021/05/20 06:25:13;;;;;;;7.05;5.75;;;359.30;2329.60;;;;;;5099002;28;20037;-62
2021/05/20 06:27:39;;;;;;;6.93;5.07;;;384.50;2329.60;;;;;;5099227;28;20009;-61
2021/05/20 06:30:05;;;;;;;5.68;4.53;;;384.60;2329.60;;;;;;5098834;28;20012;-65
2021/05/20 06:32:31;;;;;;;7.82;5.53;;;384.60;2329.60;;;;;;5098752;28;20038;-61
2021/05/20 06:35:00;;;;;;;5.20;4.00;;;409.60;2355.20;;;;;;5098922;28;20004;-61
2021/05/20 06:37:26;;;;;;;6.28;4.18;;;461.00;2176.00;;;;;;5099008;28;20008;-61
2021/05/20 06:39:52;;;;;;;5.28;3.22;;;486.50;2048.00;;;;;;5098639;28;20044;-61
2021/05/20 06:42:18;;;;;;;5.13;3.45;;;486.60;1996.80;;;;;;5098601;28;20052;-63
2021/05/20 06:44:43;;;;;;;3.55;2.65;;;486.70;1945.60;;;;;;5098549;28;20040;-62
2021/05/20 06:47:09;;;;;;;2.75;1.85;;;461.40;1971.20;;;;;;5098660;28;20037;-62
2021/05/20 06:49:35;;;;;;;4.78;2.05;;;460.90;1996.80;;;;;;5098542;28;20005;-61
2021/05/20 06:52:01;;;;;;;3.80;2.13;;;460.80;2048.00;;;;;;5098659;28;20013;-62
2021/05/20 06:54:27;;;;;;;3.45;2.10;;;461.10;2022.40;;;;;;5098655;28;20019;-61
2021/05/20 06:56:57;;;;;;;3.35;2.03;;;436.10;2048.00;;;;;;5098354;28;20068;-61
2021/05/20 07:02:07;;;;;;;3.72;2.25;;;435.60;2099.20;;;;;;5098431;28;20019;-63
2021/05/20 07:04:33;;;;;;;3.15;2.10;;;435.30;2124.80;;;;;;5098212;28;20047;-61
2021/05/20 07:07:03;;;;;;;3.80;2.13;;;410.40;2099.20;;;;;;5080459;28;20021;-62
2021/05/20 07:09:34;;;;;;;4.25;2.50;;;435.20;2124.80;;;;;;5098342;28;20009;-62
2021/05/20 07:12:01;;;;;;;5.00;2.17;;;410.20;2176.00;;;;;;5098401;28;20043;-63
2021/05/20 07:14:27;;;;;;;2.65;1.83;;;409.90;2150.40;;;;;;5098062;28;20033;-65
2021/05/20 07:16:53;;;;;;;2.60;1.83;;;409.80;2227.20;;;;;;5098027;28;20020;-61
2021/05/20 07:19:19;;;;;;;5.22;2.35;;;409.60;2227.20;;;;;;5098134;28;20013;-62
2021/05/20 07:21:46;;;;;;;5.80;2.00;;;384.90;2201.60;;;;;;5097888;28;20017;-62
2021/05/20 07:24:12;;;;;;;3.65;2.40;;;384.70;2227.20;;;;;;5098086;28;20052;-61
2021/05/20 07:26:37;;;;;;;4.03;2.70;;;384.50;2278.40;;;;;;5098123;28;20012;-61
2021/05/20 07:29:04;;;;;;;3.42;2.13;;;384.40;2304.00;;;;;;5097955;28;20028;-62
2021/05/20 07:31:30;;;;;;;3.08;2.05;;;384.10;2278.40;;;;;;5098018;28;20017;-61
2021/05/20 07:33:56;;;;;;;3.50;2.75;;;359.30;2329.60;;;;;;5097871;28;20076;-62
2021/05/20 07:36:22;;;;;;;3.42;2.28;;;359.20;2329.60;;;;;;5097693;28;20027;-61
2021/05/20 07:38:49;;;;;;;2.95;2.17;;;359.00;2329.60;;;;;;5097964;28;20012;-62
2021/05/20 07:41:15;;;;;;;2.97;1.70;;;359.00;2329.60;;;;;;5097400;28;20108;-61
2021/05/20 07:43:42;;;;;;;2.80;2.10;;;359.00;2329.60;;;;;;5097375;28;20013;-62
2021/05/20 07:46:08;;;;;;;4.47;2.28;;;359.10;2329.60;;;;;;5097811;28;20027;-62
2021/05/20 07:48:34;;;;;;;3.20;2.10;;;359.10;2329.60;;;;;;5097598;28;20005;-62
2021/05/20 07:51:01;;;;;;;3.15;2.25;;;359.30;2329.60;;;;;;5097595;28;20043;-61
2021/05/20 07:53:27;;;;;;;6.45;2.38;;;384.00;2329.60;;;;;;5097606;28;20039;-62
2021/05/20 07:55:53;;;;;;;3.17;1.95;;;384.00;2329.60;;;;;;5097373;28;20132;-61
2021/05/20 07:58:19;;;;;;;3.10;2.30;;;384.00;2329.60;;;;;;5097532;28;20024;-62
2021/05/20 08:00:45;;;;;;;4.53;2.42;;;359.30;2329.60;;;;;;5097303;28;20024;-61
2021/05/20 08:05:49;;;;;;;3.72;2.75;;;384.40;2329.60;;;;;;5097403;28;20111;-61
2021/05/20 08:08:22;;;;;;;3.53;2.50;;;384.60;2329.60;;;;;;5097083;28;20072;-60
2021/05/20 08:13:13;;;;;;;3.65;2.45;;;409.60;2355.20;;;;;;5096427;28;20047;-62
2021/05/20 08:15:39;;;;;;;3.92;2.75;;;410.00;2355.20;;;;;;5097118;28;20060;-62
2021/05/20 08:18:05;;;;;;;4.70;2.97;;;410.10;2355.20;;;;;;5079169;28;20084;-61
2021/05/20 08:20:31;;;;;;;4.05;2.63;;;410.30;2355.20;;;;;;5096689;28;20040;-61
2021/05/20 08:22:57;;;;;;;4.68;2.20;;;410.00;2329.60;;;;;;5079536;28;20031;-61
2021/05/20 08:25:23;;;;;;;3.58;2.65;;;409.70;2355.20;;;;;;5096595;28;20039;-62
2021/05/20 08:27:49;;;;;;;5.75;2.47;;;409.60;2355.20;;;;;;5096595;28;20028;-61
2021/05/20 08:30:17;;;;;;;5.20;3.13;;;409.60;2355.20;;;;;;5096417;28;20016;-61
2021/05/20 08:32:44;;;;;;;4.72;2.72;;;384.60;2329.60;;;;;;5096632;28;20005;-61
2021/05/20 08:35:10;;;;;;;4.22;3.28;;;384.50;2329.60;;;;;;5096673;28;20058;-61
2021/05/20 08:37:38;;;;;;;5.40;3.30;;;384.10;2329.60;;;;;;5096921;28;20068;-61
2021/05/20 08:40:07;;;;;;;16.27;11.30;;;359.00;2329.60;;;;;;5096344;28;20032;-61
2021/05/20 08:42:33;;;;;;;4.45;2.58;;;358.90;2329.60;;;;;;5096172;28;20045;-61
2021/05/20 08:45:27;;;;;;;4.85;2.90;;;358.80;2329.60;;;;;;5096561;28;20120;-62
2021/05/20 08:47:55;;;;;;;3.38;2.05;;;359.10;2329.60;;;;;;5095624;28;20084;-60
2021/05/20 08:50:23;;;;;;;2.58;1.70;;;359.20;2329.60;;;;;;5096366;28;20023;-61
2021/05/20 08:52:50;;;;;;;22.23;5.03;;;384.10;2329.60;;;;;;5096572;28;20031;-61
2021/05/20 08:55:22;;;;;;;2.40;1.60;;;384.10;2329.60;;;;;;5096483;28;20040;-61
2021/05/20 08:57:48;;;;;;;3.03;1.98;;;384.30;2329.60;;;;;;5096261;28;20013;-62
2021/05/20 09:00:17;;;;;;;2.00;1.40;;;384.60;2329.60;;;;;;5096052;28;20045;-61
2021/05/20 09:02:44;;;;;;;3.15;2.03;;;384.60;2329.60;;;;;;5096155;28;20072;-62
2021/05/20 09:05:18;;;;;;;3.25;2.00;;;384.60;2329.60;;;;;;5096385;28;20012;-63
2021/05/20 09:07:56;;;;;;;4.47;1.98;;;384.70;2329.60;;;;;;5096115;28;20032;-62
2021/05/20 09:10:29;;;;;;;3.88;2.00;;;409.60;2355.20;;;;;;5095872;28;20031;-61
2021/05/20 09:13:07;;;;;;;2.87;2.00;;;409.60;2355.20;;;;;;5078579;28;20050;-61
2021/05/20 09:15:32;;;;;;;1.92;1.48;;;409.80;2355.20;;;;;;5096114;28;20012;-62
2021/05/20 09:18:07;;;;;;;3.22;1.95;;;410.00;2355.20;;;;;;5096117;28;20013;-62
2021/05/20 09:20:34;;;;;;;3.83;2.08;;;384.80;2329.60;;;;;;5095870;28;20051;-62
2021/05/20 09:23:10;;;;;;;3.30;1.73;;;384.60;2329.60;;;;;;5096223;28;20013;-63
2021/05/20 09:25:37;;;;;;;4.45;2.25;;;384.40;2329.60;;;;;;5095985;28;20135;-63
2021/05/20 09:28:05;;;;;;;12.35;3.80;;;384.20;2329.60;;;;;;5096031;28;20050;-62
2021/05/20 09:30:33;;;;;;;4.07;2.55;;;359.20;2329.60;;;;;;5095736;28;20030;-62
2021/05/20 09:33:11;;;;;;;3.47;2.00;;;384.20;2329.60;;;;;;5096004;28;20036;-63
2021/05/20 09:35:39;;;;;;;1.90;1.38;;;384.00;2329.60;;;;;;5096167;28;20023;-63
2021/05/20 09:38:06;;;;;;;2.67;1.45;;;359.10;2329.60;;;;;;5095902;28;20021;-63
2021/05/20 09:40:38;;;;;;;3.17;1.80;;;359.00;2329.60;;;;;;5095377;28;20033;-62
2021/05/20 09:43:35;;;;;;;3.40;1.80;;;359.10;2329.60;;;;;;5095902;28;20040;-60
2021/05/20 09:46:03;;;;;;;1.77;1.10;;;359.20;2329.60;;;;;;5079891;28;20095;-61
2021/05/20 09:48:41;;;;;;;3.50;1.80;;;359.00;2329.60;;;;;;5095792;28;20012;-62
2021/05/20 09:51:20;;;;;;;2.85;1.80;;;359.10;2329.60;;;;;;5095938;28;20017;-61
2021/05/20 09:53:52;;;;;;;4.05;2.30;;;359.00;2329.60;;;;;;5095691;28;20072;-63
2021/05/20 09:56:39;;;;;;;2.75;1.55;;;359.20;2329.60;;;;;;5067552;28;20132;-61
2021/05/20 09:59:06;;;;;;;4.07;2.30;;;384.10;2329.60;;;;;;5069840;28;20055;-62
2021/05/20 10:01:34;;;;;;;2.35;1.40;;;384.10;2329.60;;;;;;5069737;28;20094;-60
2021/05/20 10:04:00;;;;;;;2.95;1.70;;;359.20;2329.60;;;;;;5069644;28;20025;-63
2021/05/20 10:06:39;;;;;;;4.00;2.10;;;384.00;2329.60;;;;;;5051182;28;20037;-61
2021/05/20 10:09:08;;;;;;;1.95;1.30;;;384.00;2329.60;;;;;;5069467;28;20024;-65
2021/05/20 10:11:36;;;;;;;2.70;1.50;;;359.30;2329.60;;;;;;5069577;28;20043;-62
2021/05/20 10:14:06;;;;;;;2.33;1.40;;;384.30;2329.60;;;;;;5069348;28;20378;-60
2021/05/20 10:16:33;;;;;;;5.68;2.03;;;384.50;2329.60;;;;;;5069402;28;20048;-60
2021/05/20 10:18:59;;;;;;;3.58;2.03;;;409.90;2329.60;;;;;;5069577;28;20470;-60
2021/05/20 10:21:26;;;;;;;4.88;1.60;;;435.40;2227.20;;;;;;5050853;28;20385;-62
2021/05/20 10:23:53;;;;;;;1.77;1.42;;;435.90;2176.00;;;;;;5069374;28;20474;-61
2021/05/20 10:26:19;;;;;;;7.47;4.28;;;461.10;2150.40;;;;;;5069716;28;20409;-61
2021/05/20 10:28:46;;;;;;;7.65;3.90;;;461.40;2124.80;;;;;;5069365;28;20021;-63
2021/05/20 10:31:12;;;;;;;3.85;1.95;;;461.20;2073.60;;;;;;5069225;28;20040;-61
2021/05/20 10:33:39;;;;;;;4.43;1.90;;;461.00;2124.80;;;;;;5069511;28;20017;-60
2021/05/20 10:36:05;;;;;;;6.30;4.03;;;461.60;2048.00;;;;;;5072424;28;20107;-61
2021/05/20 10:38:34;;;;;;;2.03;1.33;;;486.50;1996.80;;;;;;5072887;28;20086;-57
2021/05/20 10:41:13;;;;;;;2.75;1.20;;;461.20;2022.40;;;;;;5072871;28;20052;-61
2021/05/20 10:43:43;;;;;;;2.28;1.45;;;461.20;2022.40;;;;;;5072996;28;20147;-61
2021/05/20 10:46:14;;;;;;;2.90;1.60;;;460.90;2048.00;;;;;;5055252;28;20413;-64
2021/05/20 10:48:50;;;;;;;2.40;1.20;;;436.10;2048.00;;;;;;5072852;28;20059;-61
2021/05/20 10:51:21;;;;;;;1.90;1.23;;;435.90;2048.00;;;;;;5072790;28;20060;-62
2021/05/20 10:53:49;;;;;;;1.23;1.00;;;435.50;2099.20;;;;;;5072536;28;20363;-61
2021/05/20 10:56:15;;;;;;;1.50;1.10;;;410.50;2150.40;;;;;;5072473;28;20528;-64
2021/05/20 10:58:44;;;;;;;2.25;1.40;;;435.30;2073.60;;;;;;5072437;28;20017;-63
2021/05/20 11:01:24;;;;;;;2.35;1.55;;;435.40;2124.80;;;;;;5072531;28;20037;-61
2021/05/20 11:04:07;;;;;;;2.63;1.17;;;435.50;2099.20;;;;;;5072530;28;20470;-63
2021/05/20 11:06:35;;;;;;;2.10;1.20;;;410.30;2150.40;;;;;;5072608;28;20061;-63
2021/05/20 11:09:05;;;;;;;3.78;1.50;;;410.10;2227.20;;;;;;5072216;28;20262;-61
2021/05/20 11:11:35;;;;;;;14.85;11.38;;;410.50;2124.80;;;;;;5072561;28;20036;-61
2021/05/20 11:14:13;;;;;;;3.28;1.38;;;435.20;2150.40;;;;;;5072317;28;20027;-64
2021/05/20 11:16:42;;;;;;;1.67;0.90;;;410.20;2176.00;;;;;;5072209;28;20017;-61
2021/05/20 11:19:24;;;;;;;12.38;3.15;;;409.60;2201.60;;;;;;5072392;28;20532;-63
2021/05/20 11:22:01;;;;;;;24.52;11.40;;;384.60;2252.80;;;;;;5072159;28;20386;-64
2021/05/20 11:24:35;;;;;;;3.40;2.42;;;384.20;2304.00;;;;;;5072266;28;20481;-60
2021/05/20 11:27:01;;;;;;;;;;;359.20;2329.60;;;;;;5072888;28;20103;-67
2021/05/20 11:29:32;;;;;;;80.82;65.10;;;359.10;2329.60;;;;;;5072261;28;19999;-66
2021/05/20 11:32:24;;;;;;;3.55;1.45;;;359.10;2329.60;;;;;;5072231;28;20202;-65
2021/05/20 11:37:23;;;;;;;54.28;34.75;;;358.90;2329.60;;;;;;5072323;28;20023;-64
2021/05/20 11:39:49;;;;;;;4.63;2.80;;;359.20;2329.60;;;;;;5071833;28;20035;-62
2021/05/20 11:42:27;;;;;;;163.43;102.63;;;359.10;2329.60;;;;;;5071397;28;20044;-62
2021/05/20 11:44:56;;;;;;;33.17;20.40;;;359.10;2329.60;;;;;;5071675;28;20051;-62
2021/05/20 11:47:23;;;;;;;11.70;7.95;;;358.90;2329.60;;;;;;5070597;28;20031;-66
2021/05/20 11:49:50;;;;;;;9.57;8.18;;;358.80;2329.60;;;;;;5071826;28;20066;-62
2021/05/20 11:52:18;;;;;;;4.53;2.30;;;358.90;2329.60;;;;;;5071620;28;20070;-67
2021/05/20 11:54:49;;;;;;;2.67;1.67;;;358.80;2329.60;;;;;;5071496;28;20024;-63
2021/05/20 11:57:17;;;;;;;16.42;1.98;;;358.80;2329.60;;;;;;5071374;28;20036;-65
2021/05/20 11:59:53;;;;;;;81.80;38.60;;;358.80;2329.60;;;;;;5071362;28;20025;-63
2021/05/20 12:02:28;;;;;;;10.48;5.28;;;358.80;2329.60;;;;;;5053988;28;20098;-64
2021/05/20 12:05:03;;;;;;;8.20;3.58;;;358.70;2329.60;;;;;;5071357;28;20029;-64
2021/05/20 12:07:31;;;;;;;73.43;35.97;;;358.50;2329.60;;;;;;5071449;28;20025;-64
2021/05/20 12:10:18;;;;;;;3.78;2.28;;;358.50;2329.60;;;;;;5071342;28;20390;-63
2021/05/20 12:12:57;;;;;;;32.40;14.80;;;358.40;2329.60;;;;;;5070999;28;20048;-65
2021/05/20 12:15:25;;;;;;;13.13;5.00;;;358.40;2329.60;;;;;;5070975;28;20428;-64
2021/05/20 12:17:54;;;;;;;5.72;2.13;;;333.60;2329.60;;;;;;5070974;28;20060;-61
2021/05/20 12:20:20;;;;;;;5.55;2.92;;;358.40;2329.60;;;;;;5071103;28;20489;-62
2021/05/20 12:22:46;;;;;;;39.45;18.77;;;358.50;2329.60;;;;;;5071049;28;20031;-61
2021/05/20 12:25:17;;;;;;;3.75;2.17;;;358.40;2329.60;;;;;;5070752;28;20529;-61
2021/05/20 12:27:46;;;;;;;8.07;4.22;;;333.70;2329.60;;;;;;5070834;28;20016;-65
2021/05/20 12:30:25;;;;;;;3.53;1.90;;;333.60;2329.60;;;;;;5070986;28;20025;-62
2021/05/20 12:32:52;;;;;;;3.78;1.98;;;333.40;2329.60;;;;;;5070911;28;20024;-62